Grandin, Florida
Current Conditions -  °F | °C
As of 9:44 AM on Thursday 30 Oct 2014 (Local Time) from KGNV Reporting Station
Haze Haze  
Wind Chill: 65°   Ceiling: 200
Heat Index: 65°   Visibility: 2mi
Dew Point: 65°   Wind: 6mph
Humidity: 100%   Direction: 20°NNE
Pressure: 30.01"   Gusts: NA
Location:  29.73°N, 81.92°W
Report Text: KGNV 301344Z 02005KT 2SM BR OVC002 18/18 A3001 RMK AO2 T01830183
Loading
Personal Weather Stations






























Interactive Weather Map
Tropical Storm Tracking
New forecast layout! Learn more

10-Day Weather Forecast

Advertisements
Track Severe Weather on mobile